createdAt,value
2022-12-03T12:36:36.882Z,1.77
2022-12-03T12:55:33.933Z,1.64
2022-12-03T12:58:27.589Z,1.62
2022-12-03T13:01:22.528Z,1.60
2022-12-03T13:03:56.068Z,1.76
2022-12-03T13:07:20.649Z,1.97
2022-12-03T13:09:57.481Z,1.86
2022-12-03T13:12:29.934Z,1.81
2022-12-03T13:18:06.355Z,1.71
2022-12-03T13:24:25.067Z,1.76
2022-12-03T13:26:57.076Z,1.77
2022-12-03T13:29:30.022Z,1.77
2022-12-03T13:35:55.469Z,1.77
2022-12-03T13:38:29.791Z,1.77
2022-12-03T13:41:31.981Z,1.78
2022-12-03T13:44:09.333Z,1.76
2022-12-03T13:47:01.940Z,1.73
2022-12-03T13:49:36.473Z,1.74
2022-12-03T13:52:20.667Z,1.76
2022-12-03T13:54:55.308Z,1.77
2022-12-03T13:57:27.960Z,1.77
2022-12-03T14:00:01.448Z,1.78
2022-12-03T14:06:16.001Z,1.78
2022-12-03T14:11:56.539Z,1.83
2022-12-03T14:14:30.256Z,1.85
2022-12-03T14:17:06.868Z,1.87
2022-12-03T14:19:54.319Z,1.87
2022-12-03T14:22:25.411Z,1.88
2022-12-03T14:24:59.472Z,1.87
2022-12-03T14:31:08.676Z,1.90
2022-12-03T14:33:55.210Z,1.87
2022-12-03T14:36:26.549Z,1.84
2022-12-03T14:38:56.683Z,1.83
2022-12-03T14:41:43.136Z,1.82
2022-12-03T14:44:11.298Z,1.79
2022-12-03T14:46:39.460Z,1.77
2022-12-03T14:49:08.152Z,1.77
2022-12-03T14:51:37.088Z,1.77
2022-12-03T15:04:32.941Z,1.82
2022-12-03T15:10:05.310Z,1.86
2022-12-03T15:12:41.657Z,1.88
2022-12-03T15:15:14.937Z,1.88
2022-12-03T16:07:51.151Z,1.56
2022-12-03T16:13:13.399Z,1.50
2022-12-03T16:15:53.242Z,1.49
2022-12-03T16:18:32.727Z,1.48
2022-12-03T16:21:04.486Z,1.48
2022-12-03T17:01:42.837Z,1.27
2022-12-03T17:04:12.977Z,1.28
2022-12-03T17:06:50.234Z,1.30
2022-12-03T17:09:22.120Z,1.31
2022-12-03T17:11:53.353Z,1.32
2022-12-03T17:14:44.566Z,1.34
2022-12-03T17:17:33.734Z,1.36
2022-12-03T17:20:22.487Z,1.39
2022-12-03T17:23:07.301Z,1.40
2022-12-03T17:25:56.904Z,1.41
2022-12-03T17:28:46.876Z,1.42
2022-12-03T17:31:41.453Z,1.42
2022-12-03T17:34:32.345Z,1.43
2022-12-03T17:37:21.224Z,1.42
2022-12-03T17:39:48.908Z,1.42
2022-12-03T17:42:19.671Z,1.44
2022-12-03T17:44:49.639Z,1.46
2022-12-03T17:47:17.512Z,1.47
2022-12-03T17:50:28.382Z,1.48
2022-12-03T17:53:21.051Z,1.50
2022-12-03T17:56:09.256Z,1.51
2022-12-03T17:58:58.039Z,1.53
2022-12-03T18:01:47.250Z,1.55
2022-12-03T18:04:22.218Z,1.55
2022-12-03T18:07:44.220Z,1.56
2022-12-03T18:10:52.241Z,1.58
2022-12-03T18:13:43.100Z,1.58
2022-12-03T18:16:37.618Z,1.60
2022-12-03T18:19:26.539Z,1.61
2022-12-03T18:21:55.858Z,1.62
2022-12-03T18:24:26.540Z,1.63
2022-12-03T18:27:14.996Z,1.65
2022-12-03T18:29:46.780Z,1.65
2022-12-03T18:32:36.590Z,1.68
2022-12-03T18:35:10.656Z,1.68
2022-12-03T18:37:40.708Z,1.67
2022-12-03T18:40:32.015Z,1.68
2022-12-03T18:43:22.924Z,1.69
2022-12-03T18:46:31.051Z,1.68
2022-12-03T18:49:04.203Z,1.67
2022-12-03T18:51:59.051Z,1.69
2022-12-03T18:54:49.909Z,1.68
2022-12-03T18:57:42.714Z,1.69
2022-12-03T19:00:33.630Z,1.71
2022-12-03T19:03:26.012Z,1.73
2022-12-03T19:06:19.105Z,1.73
2022-12-03T19:08:54.978Z,1.74
2022-12-03T19:11:46.279Z,1.76
2022-12-03T19:14:39.375Z,1.78
2022-12-03T19:17:30.278Z,1.76
2022-12-03T19:20:20.751Z,1.76
2022-12-03T19:22:51.100Z,1.76
2022-12-03T19:25:42.700Z,1.75
2022-12-03T19:28:34.126Z,1.76
2022-12-03T19:31:23.141Z,1.78
2022-12-03T19:34:16.347Z,1.79
2022-12-03T19:37:08.553Z,1.77
2022-12-03T19:40:01.685Z,1.78
2022-12-03T19:42:35.128Z,1.78
2022-12-03T19:46:23.781Z,1.81
2022-12-03T19:48:55.486Z,1.81
2022-12-03T19:51:36.758Z,1.82
2022-12-03T19:54:31.751Z,1.83
2022-12-03T19:57:24.759Z,1.82
2022-12-03T20:00:19.999Z,1.84
2022-12-03T20:03:17.867Z,1.85
2022-12-03T20:05:53.294Z,1.86
2022-12-03T20:08:34.971Z,1.86
2022-12-03T20:11:32.281Z,1.86
2022-12-03T20:14:29.314Z,1.88
2022-12-03T20:17:04.433Z,1.88
2022-12-03T20:20:02.103Z,1.89
2022-12-03T20:23:13.373Z,1.89
2022-12-03T20:25:54.791Z,1.89
2022-12-03T20:28:56.841Z,1.90
2022-12-03T20:31:49.410Z,1.90
2022-12-03T20:34:43.619Z,1.89
2022-12-03T20:37:40.233Z,1.90
2022-12-03T20:40:42.149Z,1.90
2022-12-03T20:43:36.706Z,1.91
2022-12-03T20:46:40.961Z,1.93
2022-12-03T20:49:46.319Z,1.93
2022-12-03T20:52:20.690Z,1.93
2022-12-03T20:55:16.461Z,1.94
2022-12-03T20:58:11.064Z,1.94
2022-12-03T21:00:44.868Z,1.95
2022-12-03T21:03:51.376Z,1.95
2022-12-03T21:06:45.481Z,1.96
2022-12-03T21:09:18.473Z,1.94
2022-12-03T21:12:10.154Z,1.94
2022-12-03T21:15:03.506Z,1.92
2022-12-03T21:17:56.941Z,1.92
2022-12-03T21:20:51.114Z,1.90
2022-12-03T21:23:22.159Z,1.91
2022-12-03T21:26:16.631Z,1.92
2022-12-03T21:28:52.343Z,1.92
2022-12-03T21:31:48.410Z,1.93
2022-12-03T21:34:59.557Z,1.95
2022-12-03T21:37:53.023Z,1.94
2022-12-03T21:40:44.666Z,1.94
2022-12-03T21:43:42.132Z,1.95
2022-12-03T21:47:09.747Z,1.97
2022-12-03T21:49:32.365Z,1.96
2022-12-03T21:52:34.908Z,1.96
2022-12-03T21:55:26.272Z,1.95
2022-12-03T21:58:31.612Z,1.95
2022-12-03T22:01:29.452Z,1.95
2022-12-03T22:04:35.757Z,1.95
2022-12-03T22:07:06.985Z,1.95
2022-12-03T22:10:05.380Z,1.94
2022-12-03T22:13:00.339Z,1.92
2022-12-03T22:15:38.363Z,1.92
2022-12-03T22:18:39.523Z,1.92
2022-12-03T22:21:13.703Z,1.92
2022-12-03T22:23:45.694Z,1.92
2022-12-03T22:26:40.468Z,1.92
2022-12-03T22:29:49.171Z,1.92
2022-12-03T22:32:24.686Z,1.92
2022-12-03T22:35:29.911Z,1.91
2022-12-03T22:38:23.941Z,1.92
2022-12-03T22:41:27.026Z,1.92
2022-12-03T22:44:29.304Z,1.90
2022-12-03T22:47:22.301Z,1.90
2022-12-03T22:50:17.407Z,1.90
2022-12-03T22:52:49.136Z,1.90
2022-12-03T22:55:42.245Z,1.90
2022-12-03T22:58:33.189Z,1.88
2022-12-03T23:01:29.558Z,1.88
2022-12-03T23:04:04.856Z,1.86
2022-12-03T23:07:00.517Z,1.84
2022-12-03T23:09:54.940Z,1.85
2022-12-03T23:12:27.665Z,1.84
2022-12-03T23:14:58.621Z,1.84
2022-12-03T23:17:34.548Z,1.84
2022-12-03T23:20:06.756Z,1.82
2022-12-03T23:22:37.277Z,1.80
2022-12-03T23:25:12.460Z,1.79
2022-12-03T23:27:45.504Z,1.77
2022-12-03T23:30:17.957Z,1.75
2022-12-03T23:33:10.938Z,1.76
2022-12-03T23:35:43.656Z,1.76
2022-12-03T23:38:14.890Z,1.76
2022-12-03T23:40:48.216Z,1.76
2022-12-03T23:43:19.126Z,1.76
2022-12-03T23:45:51.845Z,1.76
2022-12-03T23:48:22.308Z,1.76
2022-12-03T23:50:53.333Z,1.76
2022-12-03T23:53:23.898Z,1.76
2022-12-03T23:56:10.160Z,1.76
2022-12-03T23:58:41.909Z,1.76
